Time;durP1;ratioP1;P1;durP2;ratioP2;P2;SDS_P1;SDS_P2;PMS_P1;PMS_P2;Temp;Humidity;BMP_temperature;BMP_pressure;BME280_temperature;BME280_humidity;BME280_pressure;Samples;Min_cycle;Max_cycle;Signal;HPM_P1;HPM_P2
2023/12/16 00:02:03;;;;;;;16.48;4.40;;;;;;;;;;5077362;28;20032;-67
2023/12/16 00:04:29;;;;;;;14.10;4.78;;;;;;;;;;5071541;28;20047;-67
2023/12/16 00:06:55;;;;;;;13.77;4.65;;;;;;;;;;5070558;28;20040;-67
2023/12/16 00:09:21;;;;;;;10.82;4.55;;;;;;;;;;5069338;28;20120;-68
2023/12/16 00:11:47;;;;;;;17.42;4.57;;;;;;;;;;5066980;28;20490;-68
2023/12/16 00:14:13;;;;;;;15.43;4.47;;;;;;;;;;5069402;28;20040;-68
2023/12/16 00:16:44;;;;;;;14.68;4.18;;;;;;;;;;5065320;28;20049;-68
2023/12/16 00:19:10;;;;;;;11.55;3.80;;;;;;;;;;5068317;28;20494;-68
2023/12/16 00:21:37;;;;;;;16.75;4.18;;;;;;;;;;5070223;28;20032;-68
2023/12/16 00:24:03;;;;;;;13.70;3.80;;;;;;;;;;5071154;28;20102;-68
2023/12/16 00:26:29;;;;;;;14.98;4.40;;;;;;;;;;5062445;28;20098;-68
2023/12/16 00:28:54;;;;;;;9.15;3.60;;;;;;;;;;5071258;28;20425;-68
2023/12/16 00:31:20;;;;;;;13.00;4.15;;;;;;;;;;5074548;28;20032;-68
2023/12/16 00:33:46;;;;;;;12.95;3.70;;;;;;;;;;5071069;28;20033;-68
2023/12/16 00:36:12;;;;;;;14.23;3.85;;;;;;;;;;5079884;28;20040;-68
2023/12/16 00:38:38;;;;;;;10.65;3.33;;;;;;;;;;5066344;28;20542;-68
2023/12/16 00:41:04;;;;;;;11.38;3.30;;;;;;;;;;5074354;28;20040;-68
2023/12/16 00:43:31;;;;;;;13.30;3.60;;;;;;;;;;5076748;28;20033;-67
2023/12/16 00:45:57;;;;;;;9.82;2.90;;;;;;;;;;5035696;28;20503;-67
2023/12/16 00:48:23;;;;;;;12.05;3.38;;;;;;;;;;5068615;28;20037;-67
2023/12/16 00:50:49;;;;;;;13.00;3.20;;;;;;;;;;5073998;28;20033;-68
2023/12/16 00:53:15;;;;;;;9.32;3.80;;;;;;;;;;5071760;28;20067;-68
2023/12/16 00:55:41;;;;;;;12.00;3.42;;;;;;;;;;5076332;28;20490;-68
2023/12/16 00:58:07;;;;;;;13.68;3.80;;;;;;;;;;5066505;28;20083;-68
2023/12/16 01:00:33;;;;;;;15.40;3.75;;;;;;;;;;5073942;28;20044;-68
2023/12/16 01:02:59;;;;;;;11.98;3.50;;;;;;;;;;5072380;28;20029;-68
2023/12/16 01:05:26;;;;;;;13.35;4.10;;;;;;;;;;5073553;28;20047;-68
2023/12/16 01:07:52;;;;;;;10.77;3.70;;;;;;;;;;5064981;28;20120;-68
2023/12/16 01:10:18;;;;;;;13.77;3.47;;;;;;;;;;5073006;28;20166;-68
2023/12/16 01:12:45;;;;;;;14.40;4.35;;;;;;;;;;5072963;28;20062;-68
2023/12/16 01:15:11;;;;;;;13.23;3.80;;;;;;;;;;5072442;28;20544;-68
2023/12/16 01:17:37;;;;;;;11.63;3.53;;;;;;;;;;5067351;28;20052;-68
2023/12/16 01:20:03;;;;;;;14.10;4.20;;;;;;;;;;5063164;28;20037;-68
2023/12/16 01:22:29;;;;;;;11.38;3.85;;;;;;;;;;5066901;28;20051;-68
2023/12/16 01:24:55;;;;;;;8.35;3.58;;;;;;;;;;5076331;28;20036;-68
2023/12/16 01:27:21;;;;;;;10.63;3.70;;;;;;;;;;5064039;28;20041;-68
2023/12/16 01:29:47;;;;;;;11.77;3.65;;;;;;;;;;5068181;28;20035;-68
2023/12/16 01:32:13;;;;;;;15.05;3.65;;;;;;;;;;5070876;28;20094;-68
2023/12/16 01:34:39;;;;;;;13.13;3.35;;;;;;;;;;5069627;28;20032;-68
2023/12/16 01:37:05;;;;;;;14.40;3.67;;;;;;;;;;5064925;28;20125;-68
2023/12/16 01:39:31;;;;;;;13.88;3.65;;;;;;;;;;5071601;28;20518;-68
2023/12/16 01:41:57;;;;;;;11.50;3.55;;;;;;;;;;5072963;28;20048;-68
2023/12/16 01:44:23;;;;;;;7.80;3.20;;;;;;;;;;5073612;28;20044;-68
2023/12/16 01:46:49;;;;;;;9.48;3.05;;;;;;;;;;5070764;28;20045;-68
2023/12/16 01:49:15;;;;;;;12.55;3.00;;;;;;;;;;5068577;28;20402;-68
2023/12/16 01:51:42;;;;;;;10.32;3.28;;;;;;;;;;5069260;28;20059;-68
2023/12/16 01:54:08;;;;;;;11.73;3.47;;;;;;;;;;5069085;28;20483;-68
2023/12/16 01:56:35;;;;;;;11.93;3.30;;;;;;;;;;5062469;28;20115;-68
2023/12/16 01:59:01;;;;;;;8.57;2.85;;;;;;;;;;5080756;28;20110;-68
2023/12/16 02:01:27;;;;;;;10.88;2.92;;;;;;;;;;5080645;28;20044;-68
2023/12/16 02:03:53;;;;;;;17.25;3.55;;;;;;;;;;5073475;28;20044;-68
2023/12/16 02:06:20;;;;;;;10.35;3.10;;;;;;;;;;5072356;28;20127;-68
2023/12/16 02:08:46;;;;;;;12.45;3.03;;;;;;;;;;5075563;28;20414;-67
2023/12/16 02:11:12;;;;;;;12.32;3.15;;;;;;;;;;5068938;28;20059;-68
2023/12/16 02:13:38;;;;;;;13.43;3.35;;;;;;;;;;5072278;28;20478;-68
2023/12/16 02:16:05;;;;;;;10.63;3.42;;;;;;;;;;5070419;28;20588;-68
2023/12/16 02:18:31;;;;;;;11.75;3.38;;;;;;;;;;5069489;28;20516;-68
2023/12/16 02:20:57;;;;;;;12.95;3.20;;;;;;;;;;5065082;28;20045;-68
2023/12/16 02:23:23;;;;;;;11.75;3.60;;;;;;;;;;5073198;28;20057;-68
2023/12/16 02:25:49;;;;;;;12.13;3.45;;;;;;;;;;5068214;28;20098;-68
2023/12/16 02:28:15;;;;;;;12.15;3.30;;;;;;;;;;5067265;28;20037;-68
2023/12/16 02:30:41;;;;;;;11.50;3.10;;;;;;;;;;5072139;28;20045;-68
2023/12/16 02:33:07;;;;;;;15.15;3.72;;;;;;;;;;5064193;28;20035;-68
2023/12/16 02:35:33;;;;;;;9.88;3.05;;;;;;;;;;5072570;28;20048;-68
2023/12/16 02:38:00;;;;;;;13.98;3.10;;;;;;;;;;5070221;28;20112;-68
2023/12/16 02:40:26;;;;;;;11.02;3.63;;;;;;;;;;5060921;28;20064;-67
2023/12/16 02:42:52;;;;;;;12.75;3.00;;;;;;;;;;5072188;28;20457;-67
2023/12/16 02:45:18;;;;;;;11.98;3.17;;;;;;;;;;5052733;28;20040;-67
2023/12/16 02:47:44;;;;;;;9.45;3.22;;;;;;;;;;5072041;28;20048;-67
2023/12/16 02:50:11;;;;;;;12.85;3.42;;;;;;;;;;5072059;28;20033;-67
2023/12/16 02:52:37;;;;;;;15.95;3.42;;;;;;;;;;5078879;28;20116;-67
2023/12/16 02:55:03;;;;;;;11.18;3.55;;;;;;;;;;5077728;28;20156;-67
2023/12/16 02:57:29;;;;;;;15.98;3.58;;;;;;;;;;5070507;28;20044;-67
2023/12/16 02:59:54;;;;;;;10.57;3.33;;;;;;;;;;5073936;28;20090;-67
2023/12/16 03:02:20;;;;;;;9.35;3.40;;;;;;;;;;5072694;28;20040;-67
2023/12/16 03:04:46;;;;;;;9.55;3.65;;;;;;;;;;5071150;28;20052;-67
2023/12/16 03:07:12;;;;;;;11.77;3.63;;;;;;;;;;5072312;28;20048;-67
2023/12/16 03:09:38;;;;;;;15.68;3.00;;;;;;;;;;5072052;28;20051;-67
2023/12/16 03:12:04;;;;;;;12.32;3.08;;;;;;;;;;5070612;28;20087;-67
2023/12/16 03:14:31;;;;;;;17.27;3.30;;;;;;;;;;5071898;28;20506;-67
2023/12/16 03:16:59;;;;;;;10.95;3.17;;;;;;;;;;5071298;28;20111;-67
2023/12/16 03:19:27;;;;;;;14.20;3.33;;;;;;;;;;5107348;22;20036;-72
2023/12/16 03:21:53;;;;;;;12.50;3.30;;;;;;;;;;5105755;28;20501;-72
2023/12/16 03:24:19;;;;;;;13.80;3.25;;;;;;;;;;5109974;28;20047;-72
2023/12/16 03:26:45;;;;;;;16.02;3.25;;;;;;;;;;5090776;28;20032;-72
2023/12/16 03:29:11;;;;;;;16.77;3.60;;;;;;;;;;5104433;28;20028;-72
2023/12/16 03:31:37;;;;;;;15.30;3.28;;;;;;;;;;5111930;28;20040;-72
2023/12/16 03:34:03;;;;;;;13.52;3.60;;;;;;;;;;5111632;28;20096;-72
2023/12/16 03:36:29;;;;;;;10.27;3.13;;;;;;;;;;5099335;28;20051;-72
2023/12/16 03:38:56;;;;;;;11.20;3.67;;;;;;;;;;5111978;28;20054;-72
2023/12/16 03:41:22;;;;;;;12.88;3.55;;;;;;;;;;5108259;28;20409;-72
2023/12/16 03:43:48;;;;;;;14.70;3.40;;;;;;;;;;5111491;28;20035;-72
2023/12/16 03:46:14;;;;;;;11.52;3.08;;;;;;;;;;5103175;28;20100;-72
2023/12/16 03:48:40;;;;;;;14.82;3.63;;;;;;;;;;5111576;28;20516;-72
2023/12/16 03:51:06;;;;;;;12.15;3.13;;;;;;;;;;5095263;28;20063;-72
2023/12/16 03:53:32;;;;;;;11.75;3.22;;;;;;;;;;5096204;28;20512;-72
2023/12/16 03:55:58;;;;;;;11.48;2.92;;;;;;;;;;5101098;28;20036;-72
2023/12/16 03:58:24;;;;;;;18.08;3.70;;;;;;;;;;5099577;28;20047;-72
2023/12/16 04:00:50;;;;;;;13.07;3.17;;;;;;;;;;5111925;28;20039;-72
2023/12/16 04:03:16;;;;;;;11.88;3.53;;;;;;;;;;5110655;28;20388;-72
2023/12/16 04:05:42;;;;;;;12.15;3.13;;;;;;;;;;5102970;28;20043;-72
2023/12/16 04:08:08;;;;;;;13.88;3.95;;;;;;;;;;5100821;28;20089;-72
2023/12/16 04:10:34;;;;;;;10.40;3.10;;;;;;;;;;5102869;28;20032;-72
2023/12/16 04:13:00;;;;;;;13.23;3.55;;;;;;;;;;5115511;28;20044;-72
2023/12/16 04:15:26;;;;;;;13.88;3.42;;;;;;;;;;5106999;28;20063;-72
2023/12/16 04:17:52;;;;;;;16.48;4.03;;;;;;;;;;5115638;28;20493;-72
2023/12/16 04:20:18;;;;;;;11.30;3.40;;;;;;;;;;5114394;28;20081;-72
2023/12/16 04:22:44;;;;;;;14.70;4.05;;;;;;;;;;5102729;28;20494;-72
2023/12/16 04:25:10;;;;;;;12.15;3.40;;;;;;;;;;5102104;28;20122;-72
2023/12/16 04:27:37;;;;;;;14.27;4.13;;;;;;;;;;5107371;28;20039;-72
2023/12/16 04:30:06;;;;;;;13.75;3.65;;;;;;;;;;5107030;28;20101;-72
2023/12/16 04:32:32;;;;;;;15.23;3.70;;;;;;;;;;5103239;28;20043;-72
2023/12/16 04:34:58;;;;;;;12.90;3.33;;;;;;;;;;5102941;28;20406;-72
2023/12/16 04:37:24;;;;;;;15.48;3.67;;;;;;;;;;5114636;28;20043;-71
2023/12/16 04:39:50;;;;;;;8.98;3.20;;;;;;;;;;5111742;28;20047;-71
2023/12/16 04:42:16;;;;;;;11.60;3.97;;;;;;;;;;5106321;28;20036;-71
2023/12/16 04:44:42;;;;;;;14.18;3.65;;;;;;;;;;5101699;28;20130;-71
2023/12/16 04:47:08;;;;;;;12.35;3.80;;;;;;;;;;5095233;28;20032;-71
2023/12/16 04:49:34;;;;;;;12.35;3.70;;;;;;;;;;5094284;28;20054;-71
2023/12/16 04:52:00;;;;;;;14.45;3.33;;;;;;;;;;5102233;28;20040;-71
2023/12/16 04:54:28;;;;;;;16.20;3.97;;;;;;;;;;5115120;28;20057;-71
2023/12/16 04:56:54;;;;;;;16.92;3.30;;;;;;;;;;5115073;28;20421;-71
2023/12/16 04:59:20;;;;;;;15.15;3.65;;;;;;;;;;5103442;28;20054;-71
2023/12/16 05:01:46;;;;;;;11.93;3.63;;;;;;;;;;5095282;28;20506;-71
2023/12/16 05:04:12;;;;;;;16.90;3.50;;;;;;;;;;5100761;28;20035;-72
2023/12/16 05:06:38;;;;;;;14.57;3.42;;;;;;;;;;5099332;28;20039;-72
2023/12/16 05:09:10;;;;;;;17.50;3.40;;;;;;;;;;5114099;28;20081;-72
2023/12/16 05:11:36;;;;;;;17.15;4.18;;;;;;;;;;5106070;28;20043;-72
2023/12/16 05:14:02;;;;;;;12.70;3.40;;;;;;;;;;5111961;28;20057;-72
2023/12/16 05:16:28;;;;;;;18.23;3.83;;;;;;;;;;5104612;28;20081;-72
2023/12/16 05:18:54;;;;;;;13.43;3.70;;;;;;;;;;5096025;28;20068;-72
2023/12/16 05:21:20;;;;;;;15.68;4.15;;;;;;;;;;5101102;28;20047;-72
2023/12/16 05:23:46;;;;;;;17.98;3.90;;;;;;;;;;5107557;28;20554;-72
2023/12/16 05:26:12;;;;;;;15.43;4.10;;;;;;;;;;5101712;28;20036;-72
2023/12/16 05:28:38;;;;;;;15.15;3.90;;;;;;;;;;5107801;28;20122;-72
2023/12/16 05:31:04;;;;;;;17.75;4.40;;;;;;;;;;5105747;28;20061;-72
2023/12/16 05:33:30;;;;;;;16.63;4.32;;;;;;;;;;5108600;28;20036;-72
2023/12/16 05:35:56;;;;;;;20.27;4.93;;;;;;;;;;5103515;28;20066;-72
2023/12/16 05:38:22;;;;;;;17.10;4.32;;;;;;;;;;5105932;28;20039;-72
2023/12/16 05:40:48;;;;;;;11.98;4.10;;;;;;;;;;5108378;28;20115;-72
2023/12/16 05:43:14;;;;;;;15.07;4.82;;;;;;;;;;5103430;28;20039;-72
2023/12/16 05:45:40;;;;;;;16.35;4.72;;;;;;;;;;5108539;28;20038;-72
2023/12/16 05:48:06;;;;;;;17.25;4.90;;;;;;;;;;5095227;28;20042;-71
2023/12/16 05:50:32;;;;;;;15.75;5.00;;;;;;;;;;5096589;28;20092;-71
2023/12/16 05:52:58;;;;;;;17.83;4.53;;;;;;;;;;5103976;28;20035;-71
2023/12/16 05:55:24;;;;;;;14.57;4.43;;;;;;;;;;5099013;28;20028;-71
2023/12/16 05:57:50;;;;;;;15.05;4.80;;;;;;;;;;5099432;28;20089;-71
2023/12/16 06:00:16;;;;;;;17.08;4.63;;;;;;;;;;5088212;28;20040;-71
2023/12/16 06:02:42;;;;;;;15.43;4.40;;;;;;;;;;5099717;28;20497;-71
2023/12/16 06:05:08;;;;;;;16.95;4.70;;;;;;;;;;5096224;28;20035;-71
2023/12/16 06:07:34;;;;;;;15.27;4.63;;;;;;;;;;5097805;28;20042;-71
2023/12/16 06:10:00;;;;;;;13.70;4.32;;;;;;;;;;5106086;28;20031;-71
2023/12/16 06:12:26;;;;;;;20.67;4.85;;;;;;;;;;5103983;28;20764;-71
2023/12/16 06:14:52;;;;;;;21.27;5.32;;;;;;;;;;5108391;28;20358;-71
2023/12/16 06:17:18;;;;;;;18.85;5.00;;;;;;;;;;5105953;28;20044;-71
2023/12/16 06:19:44;;;;;;;20.80;5.00;;;;;;;;;;5094336;28;20088;-71
2023/12/16 06:22:10;;;;;;;17.05;4.80;;;;;;;;;;5094287;28;20529;-71
2023/12/16 06:24:36;;;;;;;19.98;5.25;;;;;;;;;;5099252;28;20128;-71
2023/12/16 06:27:02;;;;;;;16.10;5.20;;;;;;;;;;5108059;28;20173;-71
2023/12/16 06:29:28;;;;;;;15.85;4.95;;;;;;;;;;5101887;28;20493;-71
2023/12/16 06:31:54;;;;;;;13.75;4.93;;;;;;;;;;5099353;28;20144;-71
2023/12/16 06:34:21;;;;;;;22.13;5.18;;;;;;;;;;5094378;28;20117;-72
2023/12/16 06:36:47;;;;;;;21.10;5.45;;;;;;;;;;5106714;28;20044;-72
2023/12/16 06:39:12;;;;;;;17.67;5.13;;;;;;;;;;5104865;28;20123;-72
2023/12/16 06:41:38;;;;;;;18.52;5.47;;;;;;;;;;5098172;28;20040;-71
2023/12/16 06:44:04;;;;;;;21.48;6.20;;;;;;;;;;5092910;28;20036;-71
2023/12/16 06:46:30;;;;;;;19.70;5.90;;;;;;;;;;5089803;28;20485;-71
2023/12/16 06:48:56;;;;;;;21.00;5.95;;;;;;;;;;5094774;28;20374;-71
2023/12/16 06:51:22;;;;;;;18.60;5.20;;;;;;;;;;5100548;28;20032;-71
2023/12/16 06:53:48;;;;;;;21.98;5.85;;;;;;;;;;5107098;28;20460;-71
2023/12/16 06:56:14;;;;;;;19.33;5.80;;;;;;;;;;5094530;28;20147;-71
2023/12/16 06:58:41;;;;;;;27.33;6.63;;;;;;;;;;5101322;28;20047;-71
2023/12/16 07:01:11;;;;;;;19.90;6.35;;;;;;;;;;5105814;28;20044;-72
2023/12/16 07:03:37;;;;;;;26.58;6.53;;;;;;;;;;5105845;28;20036;-72
2023/12/16 07:06:04;;;;;;;18.73;5.80;;;;;;;;;;5101413;28;20039;-72
2023/12/16 07:08:29;;;;;;;20.08;5.65;;;;;;;;;;5108290;28;20044;-72
2023/12/16 07:10:56;;;;;;;14.75;5.53;;;;;;;;;;5107693;28;20099;-72
2023/12/16 07:13:22;;;;;;;20.67;7.07;;;;;;;;;;5109182;28;20044;-72
2023/12/16 07:15:48;;;;;;;20.48;5.93;;;;;;;;;;5112381;28;20133;-72
2023/12/16 07:18:13;;;;;;;19.63;5.78;;;;;;;;;;5106895;28;20040;-72
2023/12/16 07:20:39;;;;;;;18.33;5.90;;;;;;;;;;5096601;28;20039;-72
2023/12/16 07:23:05;;;;;;;23.95;6.55;;;;;;;;;;5112001;28;20514;-72
2023/12/16 07:25:34;;;;;;;23.45;6.68;;;;;;;;;;5104051;28;20083;-72
2023/12/16 07:28:01;;;;;;;15.10;6.25;;;;;;;;;;5082238;28;20154;-72
2023/12/16 07:30:27;;;;;;;22.02;6.00;;;;;;;;;;5089226;28;20065;-72
2023/12/16 07:32:53;;;;;;;20.20;6.78;;;;;;;;;;5102020;28;20048;-72
2023/12/16 07:35:19;;;;;;;22.70;6.53;;;;;;;;;;5107326;28;20484;-71
2023/12/16 07:37:45;;;;;;;20.48;6.20;;;;;;;;;;5104625;28;20050;-71
2023/12/16 07:40:11;;;;;;;22.95;6.55;;;;;;;;;;5108172;28;20429;-71
2023/12/16 07:42:38;;;;;;;24.65;6.20;;;;;;;;;;5109315;28;20046;-71
2023/12/16 07:45:04;;;;;;;21.50;6.68;;;;;;;;;;5095913;28;20119;-71
2023/12/16 07:47:31;;;;;;;25.95;7.05;;;;;;;;;;5098139;28;20894;-71
2023/12/16 07:49:57;;;;;;;18.33;6.82;;;;;;;;;;5092799;28;20040;-71
2023/12/16 07:52:23;;;;;;;25.50;7.22;;;;;;;;;;5100260;28;20122;-71
2023/12/16 07:54:49;;;;;;;25.70;6.85;;;;;;;;;;5103068;28;20040;-71
2023/12/16 07:57:15;;;;;;;21.08;6.57;;;;;;;;;;5091677;28;20058;-71
2023/12/16 07:59:41;;;;;;;19.00;6.53;;;;;;;;;;5091971;28;20043;-71
2023/12/16 08:02:08;;;;;;;21.70;7.00;;;;;;;;;;5094621;28;20040;-71
2023/12/16 08:04:35;;;;;;;22.45;7.13;;;;;;;;;;5109470;28;20131;-71
2023/12/16 08:07:01;;;;;;;23.52;7.25;;;;;;;;;;5102177;28;20232;-72
2023/12/16 08:09:27;;;;;;;23.98;7.65;;;;;;;;;;5110610;28;20032;-72
2023/12/16 08:11:58;;;;;;;24.33;7.53;;;;;;;;;;5101803;28;20036;-72
2023/12/16 08:14:24;;;;;;;25.85;6.75;;;;;;;;;;5102625;28;20113;-72
2023/12/16 08:16:50;;;;;;;24.50;7.47;;;;;;;;;;5099793;28;20044;-71
2023/12/16 08:19:16;;;;;;;24.40;7.63;;;;;;;;;;5109054;28;20221;-71
2023/12/16 08:21:42;;;;;;;19.58;6.93;;;;;;;;;;5100728;28;20070;-71
2023/12/16 08:24:08;;;;;;;24.90;7.35;;;;;;;;;;5101332;28;20043;-72
2023/12/16 08:26:34;;;;;;;30.55;8.13;;;;;;;;;;5107043;28;20042;-72
2023/12/16 08:29:00;;;;;;;23.27;8.25;;;;;;;;;;5102074;28;20044;-72
2023/12/16 08:31:26;;;;;;;27.17;7.93;;;;;;;;;;5101915;28;20069;-72
2023/12/16 08:33:52;;;;;;;31.00;8.35;;;;;;;;;;5105294;28;20035;-72
2023/12/16 08:36:18;;;;;;;16.45;6.40;;;;;;;;;;5092391;28;20131;-72
2023/12/16 08:38:44;;;;;;;23.80;7.75;;;;;;;;;;5093110;28;20039;-72
2023/12/16 08:41:12;;;;;;;27.40;8.13;;;;;;;;;;5104897;28;20401;-72
2023/12/16 08:43:38;;;;;;;24.40;7.97;;;;;;;;;;5097276;28;20115;-72
2023/12/16 08:46:04;;;;;;;26.77;8.95;;;;;;;;;;5098754;28;20040;-72
2023/12/16 08:48:31;;;;;;;21.63;7.90;;;;;;;;;;5109805;28;20074;-72
2023/12/16 08:50:57;;;;;;;27.98;9.60;;;;;;;;;;5089142;28;20123;-72
2023/12/16 08:53:23;;;;;;;20.77;7.85;;;;;;;;;;5102295;28;20044;-72
2023/12/16 08:55:50;;;;;;;25.95;7.95;;;;;;;;;;5104903;28;20410;-72
2023/12/16 08:58:16;;;;;;;26.55;8.00;;;;;;;;;;5093363;28;20036;-72
2023/12/16 09:00:42;;;;;;;26.30;8.55;;;;;;;;;;5100395;28;20043;-72
2023/12/16 09:03:08;;;;;;;23.42;8.50;;;;;;;;;;5112070;28;20322;-72
2023/12/16 09:05:36;;;;;;;24.35;8.38;;;;;;;;;;5115353;28;20036;-72
2023/12/16 09:08:02;;;;;;;27.88;8.30;;;;;;;;;;5114572;27;20550;-72
2023/12/16 09:10:28;;;;;;;28.15;8.40;;;;;;;;;;5107046;28;20036;-72
2023/12/16 09:12:54;;;;;;;29.83;8.63;;;;;;;;;;5109990;28;20100;-72
2023/12/16 09:15:20;;;;;;;29.67;8.02;;;;;;;;;;5114905;28;20071;-72
2023/12/16 09:20:19;;;;;;;24.92;8.38;;;;;;;;;;5085260;28;20400;-62
2023/12/16 09:22:45;;;;;;;24.23;8.00;;;;;;;;;;5093716;28;20090;-62
2023/12/16 09:25:11;;;;;;;19.08;7.07;;;;;;;;;;5084259;28;20033;-62
2023/12/16 09:27:37;;;;;;;22.70;8.20;;;;;;;;;;5088343;28;20040;-62
2023/12/16 09:30:04;;;;;;;26.35;7.90;;;;;;;;;;5093749;28;20044;-62
2023/12/16 09:32:30;;;;;;;26.33;7.82;;;;;;;;;;5093944;28;20096;-62
2023/12/16 09:34:56;;;;;;;26.85;9.02;;;;;;;;;;5088759;28;20044;-62
2023/12/16 09:37:22;;;;;;;25.67;8.23;;;;;;;;;;5088972;28;20075;-63
2023/12/16 09:39:48;;;;;;;24.40;8.10;;;;;;;;;;5092643;28;20086;-63
2023/12/16 09:42:14;;;;;;;21.45;8.30;;;;;;;;;;5091711;28;20096;-63
2023/12/16 09:44:41;;;;;;;28.17;8.20;;;;;;;;;;5093390;28;20047;-63
2023/12/16 09:47:11;;;;;;;23.20;8.02;;;;;;;;;;5092685;28;20404;-63
2023/12/16 09:49:38;;;;;;;25.67;7.93;;;;;;;;;;5092206;28;20044;-63
2023/12/16 09:52:04;;;;;;;28.25;8.60;;;;;;;;;;5076735;28;20044;-63
2023/12/16 09:54:30;;;;;;;24.73;8.02;;;;;;;;;;5074831;28;20028;-63
2023/12/16 09:56:57;;;;;;;34.58;8.40;;;;;;;;;;5072489;28;20032;-63
2023/12/16 09:59:23;;;;;;;27.50;7.95;;;;;;;;;;5079036;28;20044;-62
2023/12/16 10:01:59;;;;;;;25.20;7.95;;;;;;;;;;5071924;28;20033;-63
2023/12/16 10:04:25;;;;;;;23.73;8.05;;;;;;;;;;5090933;28;20050;-63
2023/12/16 10:06:51;;;;;;;32.53;8.93;;;;;;;;;;5076055;28;20098;-63
2023/12/16 10:09:17;;;;;;;27.92;8.43;;;;;;;;;;5063898;28;20040;-62
2023/12/16 10:11:43;;;;;;;23.17;8.07;;;;;;;;;;5073126;28;20087;-62
2023/12/16 10:14:09;;;;;;;33.05;8.32;;;;;;;;;;5075024;28;20063;-63
2023/12/16 10:16:35;;;;;;;27.27;8.25;;;;;;;;;;5087879;28;20407;-63
2023/12/16 10:19:01;;;;;;;30.90;9.02;;;;;;;;;;5093012;28;20036;-62
2023/12/16 10:21:28;;;;;;;26.30;8.93;;;;;;;;;;5076584;28;20407;-63
2023/12/16 10:23:58;;;;;;;34.80;8.27;;;;;;;;;;5064201;28;20041;-62
2023/12/16 10:26:24;;;;;;;31.83;8.90;;;;;;;;;;5071435;28;20055;-63
2023/12/16 10:28:50;;;;;;;22.80;8.65;;;;;;;;;;5073248;28;20085;-63
2023/12/16 10:31:18;;;;;;;33.97;9.65;;;;;;;;;;5066977;28;20072;-63
2023/12/16 10:33:45;;;;;;;24.48;8.25;;;;;;;;;;5072832;28;20036;-63
2023/12/16 10:36:11;;;;;;;33.08;9.30;;;;;;;;;;5071897;28;20048;-63
2023/12/16 10:38:37;;;;;;;32.22;9.65;;;;;;;;;;5060557;28;20127;-62
2023/12/16 10:41:03;;;;;;;36.95;10.75;;;;;;;;;;5084196;28;20147;-63
2023/12/16 10:43:29;;;;;;;33.58;10.02;;;;;;;;;;5077492;28;20039;-63
2023/12/16 10:45:56;;;;;;;36.97;10.18;;;;;;;;;;5088362;28;20044;-63
2023/12/16 10:48:22;;;;;;;29.10;10.73;;;;;;;;;;5068398;28;20056;-63
2023/12/16 10:50:49;;;;;;;38.00;11.20;;;;;;;;;;5070660;28;20064;-63
2023/12/16 10:53:24;;;;;;;31.00;11.02;;;;;;;;;;5062316;28;20044;-63
2023/12/16 10:55:54;;;;;;;35.60;11.70;;;;;;;;;;5068966;28;20048;-62
2023/12/16 10:58:21;;;;;;;36.88;10.85;;;;;;;;;;5086706;28;20499;-63
2023/12/16 11:00:49;;;;;;;34.47;11.55;;;;;;;;;;5083429;28;20388;-63
2023/12/16 11:03:18;;;;;;;44.20;12.98;;;;;;;;;;5080502;28;20048;-63
2023/12/16 11:05:48;;;;;;;44.50;13.05;;;;;;;;;;5086758;28;20149;-63
2023/12/16 11:08:15;;;;;;;36.23;12.90;;;;;;;;;;5090754;28;20044;-63
2023/12/16 11:10:41;;;;;;;35.55;13.60;;;;;;;;;;5092531;28;20043;-63
2023/12/16 11:13:08;;;;;;;41.15;13.80;;;;;;;;;;5085175;28;20033;-63
2023/12/16 11:15:35;;;;;;;38.35;13.93;;;;;;;;;;5091539;28;20086;-64
2023/12/16 11:18:03;;;;;;;50.63;14.45;;;;;;;;;;5092087;28;20047;-63
2023/12/16 11:20:39;;;;;;;48.90;14.85;;;;;;;;;;5070870;28;20495;-63
2023/12/16 11:23:05;;;;;;;39.70;14.07;;;;;;;;;;5070041;28;20068;-63
2023/12/16 11:25:34;;;;;;;49.90;15.93;;;;;;;;;;5066798;28;20040;-62
2023/12/16 11:28:01;;;;;;;43.58;15.50;;;;;;;;;;5065270;28;20041;-62
2023/12/16 11:30:29;;;;;;;36.75;15.95;;;;;;;;;;5072599;28;20119;-63
2023/12/16 11:32:56;;;;;;;45.90;15.60;;;;;;;;;;5071895;28;20408;-63
2023/12/16 11:35:44;;;;;;;45.92;16.83;;;;;;;;;;5063892;28;20111;-62
2023/12/16 11:38:10;;;;;;;46.05;15.32;;;;;;;;;;5071141;28;20036;-63
2023/12/16 11:40:49;;;;;;;51.08;16.35;;;;;;;;;;5088537;28;20119;-63
2023/12/16 11:43:15;;;;;;;47.40;16.52;;;;;;;;;;5082630;28;20082;-62
2023/12/16 11:45:43;;;;;;;46.97;15.13;;;;;;;;;;5063799;28;20473;-63
2023/12/16 11:48:10;;;;;;;49.35;16.70;;;;;;;;;;5064677;28;20101;-63
2023/12/16 11:50:39;;;;;;;48.35;16.98;;;;;;;;;;5062716;28;20070;-63
2023/12/16 11:53:11;;;;;;;49.03;17.70;;;;;;;;;;5065404;28;20523;-63
2023/12/16 11:55:37;;;;;;;53.33;18.17;;;;;;;;;;5061682;28;20041;-63
2023/12/16 11:58:03;;;;;;;46.40;16.98;;;;;;;;;;5053435;28;20452;-63
2023/12/16 12:00:30;;;;;;;50.70;16.48;;;;;;;;;;5067069;28;20032;-63
2023/12/16 12:02:59;;;;;;;47.20;16.40;;;;;;;;;;5054944;28;20044;-62
2023/12/16 12:05:25;;;;;;;48.78;17.15;;;;;;;;;;5057583;28;20072;-63
2023/12/16 12:07:51;;;;;;;58.38;18.73;;;;;;;;;;5059484;28;20467;-63
2023/12/16 12:10:17;;;;;;;53.33;18.92;;;;;;;;;;5056314;28;20132;-64
2023/12/16 12:12:43;;;;;;;49.08;17.55;;;;;;;;;;5062795;28;20544;-63
2023/12/16 12:15:10;;;;;;;49.42;16.77;;;;;;;;;;5054714;28;20044;-63
2023/12/16 12:17:36;;;;;;;50.42;18.40;;;;;;;;;;5062024;28;20041;-63
2023/12/16 12:20:04;;;;;;;48.42;16.77;;;;;;;;;;5072711;28;20040;-62
2023/12/16 12:22:31;;;;;;;43.83;16.50;;;;;;;;;;5055741;28;20114;-63
2023/12/16 12:24:57;;;;;;;43.05;17.30;;;;;;;;;;5056072;28;20048;-63
2023/12/16 12:27:23;;;;;;;48.22;18.15;;;;;;;;;;5067527;28;20055;-63
2023/12/16 12:29:56;;;;;;;47.88;18.08;;;;;;;;;;5070295;28;20064;-62
2023/12/16 12:32:23;;;;;;;45.83;17.27;;;;;;;;;;5073467;28;20120;-63
2023/12/16 12:35:01;;;;;;;44.83;16.35;;;;;;;;;;5074088;28;20055;-64
2023/12/16 12:37:27;;;;;;;38.45;16.27;;;;;;;;;;5076721;28;20036;-63
2023/12/16 12:39:53;;;;;;;41.78;15.50;;;;;;;;;;5074785;28;20048;-64
2023/12/16 12:42:20;;;;;;;47.33;17.58;;;;;;;;;;5076206;28;20562;-63
2023/12/16 12:44:53;;;;;;;32.53;14.35;;;;;;;;;;5074454;28;20047;-63
2023/12/16 12:47:28;;;;;;;43.55;16.63;;;;;;;;;;5079887;28;20044;-64
2023/12/16 12:49:54;;;;;;;38.88;15.90;;;;;;;;;;5074839;28;20063;-63
2023/12/16 12:52:20;;;;;;;48.22;16.33;;;;;;;;;;5077226;28;20036;-63
2023/12/16 12:54:46;;;;;;;43.65;16.23;;;;;;;;;;5076627;28;20033;-63
2023/12/16 12:57:20;;;;;;;39.15;16.58;;;;;;;;;;5075787;28;20041;-63
2023/12/16 12:59:46;;;;;;;42.55;16.38;;;;;;;;;;5075337;28;20072;-63
2023/12/16 13:02:12;;;;;;;40.08;15.77;;;;;;;;;;5076856;28;20040;-63
2023/12/16 13:04:38;;;;;;;36.42;15.13;;;;;;;;;;5065757;28;20047;-63
2023/12/16 13:07:04;;;;;;;37.33;14.95;;;;;;;;;;5089572;28;20080;-63
2023/12/16 13:09:30;;;;;;;38.17;14.43;;;;;;;;;;5089330;28;20491;-63
2023/12/16 13:11:56;;;;;;;38.05;14.25;;;;;;;;;;5090973;28;20032;-64
2023/12/16 13:14:22;;;;;;;32.25;13.80;;;;;;;;;;5092699;28;20043;-63
2023/12/16 13:16:48;;;;;;;40.15;14.63;;;;;;;;;;5090104;28;20043;-63
2023/12/16 13:19:14;;;;;;;36.25;14.98;;;;;;;;;;5092417;28;20562;-63
2023/12/16 13:21:40;;;;;;;38.83;15.32;;;;;;;;;;5087724;28;20039;-63
2023/12/16 13:24:06;;;;;;;34.22;13.40;;;;;;;;;;5091152;28;20050;-63
2023/12/16 13:26:32;;;;;;;35.00;14.43;;;;;;;;;;5082022;28;20058;-63
2023/12/16 13:28:58;;;;;;;38.78;14.27;;;;;;;;;;5094232;28;20118;-63
2023/12/16 13:31:24;;;;;;;33.33;13.52;;;;;;;;;;5085049;28;20174;-63
2023/12/16 13:33:50;;;;;;;31.90;13.90;;;;;;;;;;5092992;28;20470;-63
2023/12/16 13:36:16;;;;;;;38.38;14.10;;;;;;;;;;5093944;28;20043;-64
2023/12/16 13:38:42;;;;;;;36.10;14.25;;;;;;;;;;5092471;28;20113;-63
2023/12/16 13:41:08;;;;;;;36.10;15.30;;;;;;;;;;5086074;28;20101;-63
2023/12/16 13:43:34;;;;;;;33.63;13.77;;;;;;;;;;5092583;28;20457;-63
2023/12/16 13:46:01;;;;;;;32.40;13.88;;;;;;;;;;5082956;28;20123;-63
2023/12/16 13:48:27;;;;;;;38.85;14.35;;;;;;;;;;5091713;28;20098;-64
2023/12/16 13:50:53;;;;;;;34.45;13.88;;;;;;;;;;5089397;28;20306;-63
2023/12/16 13:53:19;;;;;;;34.13;14.13;;;;;;;;;;5089961;28;20047;-64
2023/12/16 13:55:45;;;;;;;37.35;14.15;;;;;;;;;;5086220;28;20449;-63
2023/12/16 13:58:10;;;;;;;31.25;12.93;;;;;;;;;;5093547;28;20043;-64
2023/12/16 14:00:37;;;;;;;32.25;13.88;;;;;;;;;;5089210;28;20042;-64
2023/12/16 14:03:03;;;;;;;37.38;14.82;;;;;;;;;;5093027;28;20040;-64
2023/12/16 14:05:29;;;;;;;35.83;14.10;;;;;;;;;;5093154;28;20078;-64
2023/12/16 14:07:55;;;;;;;34.83;13.93;;;;;;;;;;5093272;28;20075;-64
2023/12/16 14:10:21;;;;;;;37.55;15.07;;;;;;;;;;5091681;28;20467;-64
2023/12/16 14:12:47;;;;;;;35.95;14.43;;;;;;;;;;5091653;28;20044;-64
2023/12/16 14:15:13;;;;;;;28.80;12.32;;;;;;;;;;5091665;28;20036;-64
2023/12/16 14:17:39;;;;;;;34.80;13.40;;;;;;;;;;5091780;28;20043;-64
2023/12/16 14:20:05;;;;;;;28.55;13.52;;;;;;;;;;5083014;28;20048;-63
2023/12/16 14:22:31;;;;;;;37.63;14.45;;;;;;;;;;5082962;28;20043;-65
2023/12/16 14:24:58;;;;;;;38.33;14.32;;;;;;;;;;5090415;28;20500;-63